Time;durP1;ratioP1;P1;durP2;ratioP2;P2;SDS_P1;SDS_P2;PMS_P1;PMS_P2;Temp;Humidity;BMP_temperature;BMP_pressure;BME280_temperature;BME280_humidity;BME280_pressure;Samples;Min_cycle;Max_cycle;Signal;HPM_P1;HPM_P2
2021/05/30 00:02:05;;;;;;;10.30;9.40;;;;;;;;;;5054181;28;20581;-81
2021/05/30 00:04:30;;;;;;;10.43;9.47;;;;;;;;;;5054122;28;20179;-81
2021/05/30 00:06:56;;;;;;;10.97;9.80;;;;;;;;;;5052647;28;20267;-81
2021/05/30 00:09:21;;;;;;;10.87;9.83;;;;;;;;;;5054488;28;20164;-81
2021/05/30 00:11:46;;;;;;;11.23;10.03;;;;;;;;;;5054723;28;20610;-81
2021/05/30 00:14:12;;;;;;;11.00;9.90;;;;;;;;;;5054165;28;20205;-81
2021/05/30 00:16:37;;;;;;;11.00;10.00;;;;;;;;;;5052801;28;20218;-81
2021/05/30 00:19:03;;;;;;;10.83;9.83;;;;;;;;;;5054343;28;20171;-81
2021/05/30 00:21:29;;;;;;;11.07;9.97;;;;;;;;;;5053357;28;20168;-81
2021/05/30 00:23:54;;;;;;;10.90;9.83;;;;;;;;;;5054077;28;20203;-80
2021/05/30 00:26:19;;;;;;;10.83;9.83;;;;;;;;;;5054154;28;20611;-80
2021/05/30 00:28:45;;;;;;;11.20;10.10;;;;;;;;;;5054007;28;20204;-80
2021/05/30 00:31:10;;;;;;;11.70;10.50;;;;;;;;;;5054000;28;20557;-80
2021/05/30 00:33:36;;;;;;;11.60;10.40;;;;;;;;;;5053758;28;20172;-81
2021/05/30 00:36:01;;;;;;;11.83;10.73;;;;;;;;;;5053030;28;20207;-81
2021/05/30 00:38:26;;;;;;;11.23;10.23;;;;;;;;;;5054058;28;20171;-81
2021/05/30 00:40:52;;;;;;;12.00;10.80;;;;;;;;;;5054212;28;20528;-81
2021/05/30 00:43:18;;;;;;;12.13;10.83;;;;;;;;;;5054292;28;20175;-81
2021/05/30 00:45:44;;;;;;;11.53;10.43;;;;;;;;;;5054154;28;20178;-81
2021/05/30 00:48:09;;;;;;;11.80;10.60;;;;;;;;;;5053813;28;20682;-81
2021/05/30 00:50:35;;;;;;;12.00;10.90;;;;;;;;;;5053855;28;20251;-81
2021/05/30 00:53:00;;;;;;;11.67;10.20;;;;;;;;;;5054214;28;20179;-81
2021/05/30 00:55:25;;;;;;;11.47;10.20;;;;;;;;;;5053539;28;20195;-81
2021/05/30 00:57:51;;;;;;;12.53;10.50;;;;;;;;;;5054047;28;20175;-81
2021/05/30 01:00:17;;;;;;;11.53;10.37;;;;;;;;;;5053225;28;20218;-81
2021/05/30 01:02:43;;;;;;;11.27;10.27;;;;;;;;;;5053869;28;20168;-81
2021/05/30 01:05:09;;;;;;;11.80;10.67;;;;;;;;;;5054253;28;20229;-81
2021/05/30 01:07:40;;;;;;;11.10;10.10;;;;;;;;;;5054434;28;20585;-81
2021/05/30 01:10:21;;;;;;;11.67;10.47;;;;;;;;;;5052769;28;20622;-81
2021/05/30 01:12:47;;;;;;;11.80;10.60;;;;;;;;;;5053670;28;20251;-81
2021/05/30 01:15:13;;;;;;;11.60;10.40;;;;;;;;;;5053896;28;20207;-81
2021/05/30 01:17:39;;;;;;;12.83;10.83;;;;;;;;;;5053394;28;20174;-81
2021/05/30 01:20:07;;;;;;;11.57;10.37;;;;;;;;;;5053615;28;20221;-81
2021/05/30 01:22:34;;;;;;;11.97;10.80;;;;;;;;;;5053904;28;20529;-81
2021/05/30 01:24:59;;;;;;;11.77;10.67;;;;;;;;;;5053736;28;20172;-81
2021/05/30 01:27:25;;;;;;;11.43;10.33;;;;;;;;;;5053536;28;20211;-81
2021/05/30 01:29:50;;;;;;;11.77;10.60;;;;;;;;;;5053508;28;20179;-81
2021/05/30 01:32:15;;;;;;;11.50;10.30;;;;;;;;;;5053462;28;20171;-81
2021/05/30 01:34:41;;;;;;;11.30;10.20;;;;;;;;;;5053930;28;20535;-81
2021/05/30 01:37:06;;;;;;;12.17;10.83;;;;;;;;;;5053053;28;20610;-81
2021/05/30 01:39:31;;;;;;;11.17;10.07;;;;;;;;;;5053297;28;20203;-81
2021/05/30 01:41:57;;;;;;;11.70;10.47;;;;;;;;;;5053410;28;20195;-81
2021/05/30 01:44:22;;;;;;;11.80;10.60;;;;;;;;;;5054173;28;20195;-81
2021/05/30 01:46:48;;;;;;;11.30;10.10;;;;;;;;;;5052927;28;20705;-81
2021/05/30 01:49:13;;;;;;;11.70;10.50;;;;;;;;;;5053621;28;20195;-81
2021/05/30 01:51:39;;;;;;;14.73;9.87;;;;;;;;;;5053293;28;20171;-81
2021/05/30 01:54:09;;;;;;;10.97;9.87;;;;;;;;;;5053570;28;20172;-81
2021/05/30 01:59:19;;;;;;;11.33;9.57;;;;;;;;;;5053318;28;20217;-81
2021/05/30 02:01:45;;;;;;;10.53;9.43;;;;;;;;;;5053327;28;20271;-81
2021/05/30 02:04:11;;;;;;;10.27;9.13;;;;;;;;;;5051889;28;20217;-81
2021/05/30 02:06:37;;;;;;;9.60;8.70;;;;;;;;;;5053196;28;20174;-81
2021/05/30 02:09:03;;;;;;;10.30;9.17;;;;;;;;;;5053117;28;20192;-81
2021/05/30 02:11:28;;;;;;;9.07;8.27;;;;;;;;;;5053346;28;20194;-81
2021/05/30 02:13:53;;;;;;;10.10;8.90;;;;;;;;;;5056728;28;20642;-81
2021/05/30 02:16:19;;;;;;;10.13;8.47;;;;;;;;;;5056711;28;20178;-81
2021/05/30 02:18:44;;;;;;;9.47;8.57;;;;;;;;;;5056865;28;20209;-81
2021/05/30 02:21:09;;;;;;;10.13;8.80;;;;;;;;;;5056589;28;20195;-81
2021/05/30 02:23:35;;;;;;;9.00;8.17;;;;;;;;;;5056449;28;20206;-81
2021/05/30 02:26:02;;;;;;;9.87;8.77;;;;;;;;;;5056206;28;20171;-81
2021/05/30 02:28:28;;;;;;;9.07;8.17;;;;;;;;;;5056352;28;20204;-81
2021/05/30 02:30:53;;;;;;;9.77;8.30;;;;;;;;;;5056546;28;20172;-81
2021/05/30 02:33:19;;;;;;;8.93;8.03;;;;;;;;;;5056602;28;20171;-81
2021/05/30 02:35:44;;;;;;;9.33;8.13;;;;;;;;;;5056186;28;20194;-81
2021/05/30 02:38:09;;;;;;;8.87;7.97;;;;;;;;;;5056466;28;20172;-81
2021/05/30 02:40:34;;;;;;;8.10;7.23;;;;;;;;;;5056249;28;20171;-81
2021/05/30 02:43:01;;;;;;;7.87;7.17;;;;;;;;;;5056143;28;20172;-81
2021/05/30 02:45:26;;;;;;;7.40;6.70;;;;;;;;;;5056134;28;20168;-81
2021/05/30 02:47:51;;;;;;;8.37;7.57;;;;;;;;;;5056364;28;20254;-81
2021/05/30 02:50:17;;;;;;;7.67;6.87;;;;;;;;;;5056258;28;20527;-81
2021/05/30 02:52:42;;;;;;;7.80;6.80;;;;;;;;;;5056226;28;20165;-81
2021/05/30 02:55:08;;;;;;;8.00;6.80;;;;;;;;;;5055062;28;20212;-82
2021/05/30 02:57:33;;;;;;;7.67;6.87;;;;;;;;;;5055830;28;20251;-81
2021/05/30 02:59:58;;;;;;;8.57;6.80;;;;;;;;;;5055453;28;20176;-81
2021/05/30 03:02:23;;;;;;;7.40;6.77;;;;;;;;;;5053851;28;20623;-82
2021/05/30 03:04:49;;;;;;;8.93;6.77;;;;;;;;;;5055451;28;20172;-81
2021/05/30 03:07:14;;;;;;;6.80;6.20;;;;;;;;;;5055220;28;20261;-81
2021/05/30 03:09:40;;;;;;;7.10;6.40;;;;;;;;;;5055447;28;20175;-81
2021/05/30 03:12:06;;;;;;;6.97;6.00;;;;;;;;;;5055231;28;20254;-81
2021/05/30 03:14:31;;;;;;;7.60;6.50;;;;;;;;;;5055818;28;20203;-81
2021/05/30 03:16:56;;;;;;;6.90;6.30;;;;;;;;;;5055799;28;20270;-81
2021/05/30 03:19:22;;;;;;;6.93;6.00;;;;;;;;;;5055556;28;20194;-81
2021/05/30 03:21:48;;;;;;;7.20;6.50;;;;;;;;;;5055412;28;20168;-81
2021/05/30 03:24:13;;;;;;;6.57;5.97;;;;;;;;;;5055083;28;20165;-82
2021/05/30 03:26:38;;;;;;;6.87;6.20;;;;;;;;;;5055086;28;20615;-82
2021/05/30 03:29:04;;;;;;;7.77;6.30;;;;;;;;;;5054775;28;20211;-81
2021/05/30 03:31:29;;;;;;;7.67;6.07;;;;;;;;;;5055166;28;20218;-81
2021/05/30 03:33:54;;;;;;;6.63;5.73;;;;;;;;;;5055053;28;20239;-81
2021/05/30 03:36:24;;;;;;;6.50;5.90;;;;;;;;;;5055433;28;20218;-81
2021/05/30 03:38:49;;;;;;;6.93;6.30;;;;;;;;;;5054752;28;20182;-81
2021/05/30 03:41:16;;;;;;;5.93;5.43;;;;;;;;;;5055306;28;20175;-81
2021/05/30 03:43:41;;;;;;;7.20;6.50;;;;;;;;;;5055037;28;20611;-82
2021/05/30 03:46:07;;;;;;;7.60;6.20;;;;;;;;;;5054575;28;20223;-82
2021/05/30 03:48:33;;;;;;;6.43;5.83;;;;;;;;;;5054529;28;20199;-82
2021/05/30 03:50:58;;;;;;;7.43;6.07;;;;;;;;;;5054562;28;20172;-82
2021/05/30 03:53:23;;;;;;;6.93;6.23;;;;;;;;;;5055052;28;20218;-82
2021/05/30 03:55:49;;;;;;;5.97;5.47;;;;;;;;;;5055029;28;20522;-82
2021/05/30 03:58:15;;;;;;;6.20;5.70;;;;;;;;;;5054800;28;20266;-82
2021/05/30 04:00:41;;;;;;;6.93;6.27;;;;;;;;;;5054724;28;20164;-81
2021/05/30 04:03:06;;;;;;;6.10;5.60;;;;;;;;;;5054668;28;20293;-81
2021/05/30 04:05:32;;;;;;;5.80;5.30;;;;;;;;;;5054851;28;20172;-81
2021/05/30 04:07:57;;;;;;;6.13;5.53;;;;;;;;;;5054385;28;20641;-82
2021/05/30 04:10:22;;;;;;;5.83;5.37;;;;;;;;;;5053809;28;20495;-82
2021/05/30 04:12:48;;;;;;;6.47;5.50;;;;;;;;;;5054483;28;20518;-82
2021/05/30 04:15:14;;;;;;;6.03;5.53;;;;;;;;;;5054385;28;20168;-82
2021/05/30 04:17:39;;;;;;;6.43;5.87;;;;;;;;;;5054338;28;20215;-81
2021/05/30 04:20:07;;;;;;;5.83;5.40;;;;;;;;;;5054528;28;20171;-81
2021/05/30 04:22:33;;;;;;;5.87;5.37;;;;;;;;;;5054832;28;20168;-82
2021/05/30 04:24:58;;;;;;;6.00;5.50;;;;;;;;;;5054009;28;20183;-81
2021/05/30 04:27:23;;;;;;;5.77;5.27;;;;;;;;;;5054015;28;20580;-82
2021/05/30 04:29:48;;;;;;;6.10;5.60;;;;;;;;;;5054116;28;20179;-82
2021/05/30 04:32:14;;;;;;;5.97;5.47;;;;;;;;;;5053823;28;20178;-82
2021/05/30 04:34:39;;;;;;;6.30;5.67;;;;;;;;;;5053592;28;20242;-83
2021/05/30 04:37:04;;;;;;;6.17;5.67;;;;;;;;;;5054386;28;20306;-83
2021/05/30 04:39:31;;;;;;;6.07;5.30;;;;;;;;;;5054091;28;20184;-83
2021/05/30 04:42:02;;;;;;;6.23;5.57;;;;;;;;;;5053675;28;20206;-83
2021/05/30 04:44:28;;;;;;;5.70;5.20;;;;;;;;;;5053943;28;20234;-83
2021/05/30 04:46:53;;;;;;;5.93;5.43;;;;;;;;;;5053587;28;20227;-82
2021/05/30 04:49:18;;;;;;;5.67;5.17;;;;;;;;;;5053837;28;20223;-82
2021/05/30 04:51:44;;;;;;;5.40;5.00;;;;;;;;;;5053964;28;20182;-82
2021/05/30 04:54:09;;;;;;;5.77;5.27;;;;;;;;;;5053891;28;20172;-83
2021/05/30 04:56:34;;;;;;;5.10;4.70;;;;;;;;;;5054346;28;20164;-83
2021/05/30 04:59:00;;;;;;;5.60;5.20;;;;;;;;;;5053711;28;20187;-83
2021/05/30 05:01:25;;;;;;;5.30;4.90;;;;;;;;;;5053718;28;20257;-83
2021/05/30 05:03:51;;;;;;;5.40;5.00;;;;;;;;;;5053465;28;20168;-82
2021/05/30 05:06:16;;;;;;;5.10;4.57;;;;;;;;;;5053637;28;20244;-82
2021/05/30 05:08:42;;;;;;;6.03;4.87;;;;;;;;;;5053974;28;20229;-82
2021/05/30 05:11:09;;;;;;;5.00;4.60;;;;;;;;;;5053320;28;20172;-83
2021/05/30 05:13:34;;;;;;;4.93;4.53;;;;;;;;;;5053459;28;20650;-83
2021/05/30 05:15:59;;;;;;;4.97;4.57;;;;;;;;;;5053646;28;20164;-83
2021/05/30 05:18:26;;;;;;;7.40;4.47;;;;;;;;;;5054192;28;20179;-83
2021/05/30 05:20:51;;;;;;;4.67;4.27;;;;;;;;;;5053279;28;20619;-83
2021/05/30 05:23:18;;;;;;;4.50;4.00;;;;;;;;;;5053530;28;20256;-83
2021/05/30 05:25:43;;;;;;;5.00;4.13;;;;;;;;;;5053545;28;20176;-83
2021/05/30 05:28:09;;;;;;;4.70;4.30;;;;;;;;;;5053792;28;20650;-83
2021/05/30 05:30:34;;;;;;;4.43;3.97;;;;;;;;;;5054029;28;20176;-83
2021/05/30 05:33:00;;;;;;;4.63;4.27;;;;;;;;;;5053504;28;20176;-83
2021/05/30 05:35:28;;;;;;;4.53;4.23;;;;;;;;;;5053391;28;20183;-83
2021/05/30 05:37:55;;;;;;;4.10;3.80;;;;;;;;;;5052590;28;20176;-83
2021/05/30 05:40:21;;;;;;;4.40;3.97;;;;;;;;;;5053127;28;20519;-84
2021/05/30 05:42:46;;;;;;;4.00;3.70;;;;;;;;;;5053344;28;20172;-84
2021/05/30 05:45:11;;;;;;;4.30;3.90;;;;;;;;;;5053348;28;20191;-83
2021/05/30 05:47:37;;;;;;;4.27;3.97;;;;;;;;;;5057211;28;20314;-83
2021/05/30 05:50:03;;;;;;;3.90;3.60;;;;;;;;;;5056954;28;20172;-83
2021/05/30 05:52:28;;;;;;;4.57;3.60;;;;;;;;;;5056706;28;20176;-83
2021/05/30 05:54:54;;;;;;;4.33;4.03;;;;;;;;;;5057028;28;20232;-84
2021/05/30 05:57:19;;;;;;;4.00;3.70;;;;;;;;;;5056777;28;20171;-84
2021/05/30 05:59:44;;;;;;;4.90;3.73;;;;;;;;;;5057026;28;20234;-83
2021/05/30 06:02:10;;;;;;;4.63;4.10;;;;;;;;;;5056091;28;20258;-84
2021/05/30 06:04:35;;;;;;;4.33;4.03;;;;;;;;;;5057150;28;20490;-84
2021/05/30 06:07:00;;;;;;;3.93;3.67;;;;;;;;;;5056760;28;20611;-83
2021/05/30 06:09:26;;;;;;;4.17;3.83;;;;;;;;;;5056509;28;20172;-83
2021/05/30 06:11:51;;;;;;;8.27;7.57;;;;;;;;;;5057046;28;20491;-83
2021/05/30 06:14:16;;;;;;;7.00;6.40;;;;;;;;;;5056448;28;20176;-83
2021/05/30 06:16:42;;;;;;;4.77;4.43;;;;;;;;;;5057296;28;20255;-84
2021/05/30 06:19:07;;;;;;;9.77;8.97;;;;;;;;;;5056633;28;20199;-84
2021/05/30 06:21:32;;;;;;;4.77;4.37;;;;;;;;;;5056384;28;20175;-84
2021/05/30 06:23:58;;;;;;;10.93;9.83;;;;;;;;;;5056219;28;20176;-84
2021/05/30 06:26:24;;;;;;;31.70;28.23;;;;;;;;;;5056555;28;20203;-84
2021/05/30 06:28:49;;;;;;;8.30;7.50;;;;;;;;;;5056719;28;20207;-84
2021/05/30 06:31:14;;;;;;;15.33;13.83;;;;;;;;;;5056778;28;20541;-84
2021/05/30 06:33:39;;;;;;;7.83;7.23;;;;;;;;;;5056597;28;20615;-84
2021/05/30 06:36:05;;;;;;;11.53;10.53;;;;;;;;;;5055873;28;20184;-84
2021/05/30 06:38:30;;;;;;;7.10;6.50;;;;;;;;;;5056551;28;20175;-84
2021/05/30 06:40:56;;;;;;;8.83;8.07;;;;;;;;;;5055873;28;20168;-82
2021/05/30 06:43:21;;;;;;;4.57;4.17;;;;;;;;;;5055759;28;20171;-82
2021/05/30 06:45:46;;;;;;;2.97;2.80;;;;;;;;;;5055636;28;20641;-83
2021/05/30 06:48:13;;;;;;;3.50;3.30;;;;;;;;;;5056350;28;20706;-84
2021/05/30 06:50:38;;;;;;;3.73;3.43;;;;;;;;;;5054773;28;20337;-84
2021/05/30 06:53:03;;;;;;;3.80;3.50;;;;;;;;;;5056349;28;20207;-82
2021/05/30 06:55:29;;;;;;;3.43;3.23;;;;;;;;;;5056150;28;20218;-81
2021/05/30 06:57:54;;;;;;;3.63;3.33;;;;;;;;;;5055743;28;20179;-81
2021/05/30 07:00:20;;;;;;;3.43;3.20;;;;;;;;;;5055628;28;20168;-82
2021/05/30 07:02:45;;;;;;;3.43;3.23;;;;;;;;;;5056051;28;20184;-83
2021/05/30 07:05:11;;;;;;;3.20;2.90;;;;;;;;;;5055635;28;20251;-83
2021/05/30 07:07:36;;;;;;;3.13;2.93;;;;;;;;;;5055564;28;20230;-82
2021/05/30 07:10:02;;;;;;;3.77;3.43;;;;;;;;;;5055912;28;20178;-82
2021/05/30 07:12:28;;;;;;;4.43;3.07;;;;;;;;;;5055220;28;20584;-82
2021/05/30 07:14:53;;;;;;;3.13;2.93;;;;;;;;;;5055300;28;20175;-84
2021/05/30 07:17:18;;;;;;;4.23;2.97;;;;;;;;;;5055247;28;20171;-82
2021/05/30 07:19:47;;;;;;;3.93;3.40;;;;;;;;;;5055495;28;20259;-82
2021/05/30 07:22:12;;;;;;;3.70;3.40;;;;;;;;;;5055308;28;20176;-83
2021/05/30 07:24:38;;;;;;;3.37;3.10;;;;;;;;;;5055580;28;20218;-82
2021/05/30 07:27:03;;;;;;;3.37;3.03;;;;;;;;;;5054950;28;20191;-82
2021/05/30 07:29:28;;;;;;;4.60;3.27;;;;;;;;;;5054988;28;20534;-81
2021/05/30 07:31:54;;;;;;;3.10;2.90;;;;;;;;;;5055168;28;20168;-82
2021/05/30 07:34:19;;;;;;;3.33;3.13;;;;;;;;;;5053565;28;20198;-82
2021/05/30 07:36:45;;;;;;;3.30;3.10;;;;;;;;;;5054899;28;20168;-82
2021/05/30 07:39:10;;;;;;;3.13;2.93;;;;;;;;;;5055373;28;20643;-84
2021/05/30 07:41:35;;;;;;;3.30;3.00;;;;;;;;;;5054805;28;20183;-83
2021/05/30 07:44:01;;;;;;;4.77;3.27;;;;;;;;;;5055497;28;20195;-85
2021/05/30 07:46:26;;;;;;;3.50;3.20;;;;;;;;;;5054707;28;20234;-83
2021/05/30 07:48:52;;;;;;;3.20;3.00;;;;;;;;;;5054862;28;20195;-83
2021/05/30 07:51:17;;;;;;;3.50;3.30;;;;;;;;;;5053809;28;20180;-83
2021/05/30 07:53:42;;;;;;;3.03;2.83;;;;;;;;;;5054818;28;20175;-83
2021/05/30 07:56:08;;;;;;;3.13;2.93;;;;;;;;;;5054975;28;20175;-83
2021/05/30 07:58:34;;;;;;;4.57;3.50;;;;;;;;;;5054772;28;20183;-83
2021/05/30 08:00:59;;;;;;;3.33;3.13;;;;;;;;;;5054678;28;20255;-82
2021/05/30 08:03:25;;;;;;;3.20;3.00;;;;;;;;;;5050811;28;20270;-81
2021/05/30 08:05:50;;;;;;;3.47;3.07;;;;;;;;;;5052755;28;20258;-82
2021/05/30 08:08:16;;;;;;;3.37;3.13;;;;;;;;;;5051815;28;20211;-81
2021/05/30 08:10:42;;;;;;;3.37;3.07;;;;;;;;;;5053370;28;20181;-81
2021/05/30 08:13:07;;;;;;;3.00;2.73;;;;;;;;;;5050183;28;20176;-81
2021/05/30 08:15:33;;;;;;;2.63;2.53;;;;;;;;;;5052994;28;20266;-81
2021/05/30 08:17:58;;;;;;;8.55;2.95;;;;;;;;;;5054374;28;20171;-81
2021/05/30 08:20:24;;;;;;;3.30;3.00;;;;;;;;;;5054109;28;20172;-81
2021/05/30 08:22:50;;;;;;;2.92;2.75;;;;;;;;;;5053968;28;20582;-81
2021/05/30 08:25:16;;;;;;;5.45;4.80;;;;;;;;;;5054415;28;20192;-82
2021/05/30 08:27:41;;;;;;;2.53;2.42;;;;;;;;;;5053977;28;20249;-82
2021/05/30 08:30:08;;;;;;;5.00;4.50;;;;;;;;;;5053789;28;20168;-81
2021/05/30 08:32:33;;;;;;;6.55;4.45;;;;;;;;;;5054135;28;20167;-81
2021/05/30 08:34:59;;;;;;;3.88;2.85;;;;;;;;;;5053903;28;20192;-81
2021/05/30 08:37:24;;;;;;;2.45;2.35;;;;;;;;;;5053913;28;20521;-82
2021/05/30 08:39:51;;;;;;;3.50;2.50;;;;;;;;;;5053534;28;20214;-82
2021/05/30 08:42:20;;;;;;;2.70;2.60;;;;;;;;;;5053908;28;20578;-82
2021/05/30 08:44:46;;;;;;;2.65;2.45;;;;;;;;;;5052585;28;20178;-83
2021/05/30 08:47:12;;;;;;;3.80;3.47;;;;;;;;;;5052251;28;20219;-82
2021/05/30 08:49:37;;;;;;;5.40;4.90;;;;;;;;;;5052203;28;20523;-83
2021/05/30 08:52:03;;;;;;;5.35;4.85;;;;;;;;;;5052176;28;20175;-82
2021/05/30 08:54:29;;;;;;;3.22;3.00;;;;;;;;;;5052202;28;20634;-83
2021/05/30 08:56:54;;;;;;;3.33;3.13;;;;;;;;;;5050991;28;20726;-82
2021/05/30 08:59:27;;;;;;;4.30;3.90;;;;;;;;;;5052132;28;20176;-83
2021/05/30 09:01:52;;;;;;;3.47;3.22;;;;;;;;;;5052097;28;20284;-83
2021/05/30 09:04:17;;;;;;;4.03;3.72;;;;;;;;;;5052765;28;20705;-83
2021/05/30 09:06:44;;;;;;;4.43;3.70;;;;;;;;;;5053332;28;20164;-82
2021/05/30 09:09:19;;;;;;;4.00;3.00;;;;;;;;;;5053121;28;20206;-81
2021/05/30 09:11:48;;;;;;;3.42;3.13;;;;;;;;;;5053331;28;20526;-82
2021/05/30 09:14:18;;;;;;;3.28;3.08;;;;;;;;;;5053563;28;20178;-82
2021/05/30 09:16:52;;;;;;;3.22;3.00;;;;;;;;;;5053552;28;20259;-83
2021/05/30 09:19:50;;;;;;;3.25;3.05;;;;;;;;;;5052118;28;20632;-83
2021/05/30 09:22:31;;;;;;;3.22;3.05;;;;;;;;;;5055746;28;20230;-84
2021/05/30 09:25:02;;;;;;;3.45;3.15;;;;;;;;;;5055886;28;20184;-83
2021/05/30 09:27:27;;;;;;;4.03;3.25;;;;;;;;;;5057520;28;20202;-83
2021/05/30 09:30:11;;;;;;;3.40;3.20;;;;;;;;;;5057435;28;20176;-83
2021/05/30 09:32:55;;;;;;;3.30;3.10;;;;;;;;;;5056506;28;20175;-82
2021/05/30 09:35:21;;;;;;;3.57;3.37;;;;;;;;;;5056710;28;20192;-81
2021/05/30 09:37:55;;;;;;;3.57;3.27;;;;;;;;;;5056936;28;20203;-81
2021/05/30 09:40:20;;;;;;;3.10;2.90;;;;;;;;;;5057300;28;20167;-83
2021/05/30 09:42:46;;;;;;;2.90;2.70;;;;;;;;;;5056655;28;20168;-83
2021/05/30 09:45:12;;;;;;;4.00;2.93;;;;;;;;;;5044165;28;20180;-83
2021/05/30 09:47:41;;;;;;;3.40;3.10;;;;;;;;;;5056512;28;20223;-83
2021/05/30 09:50:11;;;;;;;2.80;2.60;;;;;;;;;;5056643;28;20182;-83
2021/05/30 09:52:37;;;;;;;3.50;3.20;;;;;;;;;;5045169;28;20177;-83
2021/05/30 09:55:15;;;;;;;2.80;2.70;;;;;;;;;;5037022;28;20172;-83
2021/05/30 09:57:40;;;;;;;2.60;2.50;;;;;;;;;;5037137;28;20182;-83
2021/05/30 10:00:20;;;;;;;2.90;2.70;;;;;;;;;;5039076;28;20177;-84
2021/05/30 10:02:45;;;;;;;2.90;2.70;;;;;;;;;;5056555;28;20630;-83
2021/05/30 10:05:11;;;;;;;2.53;2.40;;;;;;;;;;5056801;28;20218;-83
2021/05/30 10:07:37;;;;;;;2.70;2.35;;;;;;;;;;5056808;28;20669;-83
2021/05/30 10:10:04;;;;;;;2.50;2.40;;;;;;;;;;5056398;28;20171;-83
2021/05/30 10:12:30;;;;;;;2.95;2.65;;;;;;;;;;5056777;28;20688;-83
2021/05/30 10:14:55;;;;;;;2.67;2.40;;;;;;;;;;5056260;28;20168;-82
2021/05/30 10:17:22;;;;;;;4.63;2.90;;;;;;;;;;5052730;28;20177;-82
2021/05/30 10:19:49;;;;;;;3.07;2.87;;;;;;;;;;5035410;28;20627;-82
2021/05/30 10:22:17;;;;;;;2.93;2.73;;;;;;;;;;5036668;28;20180;-83
2021/05/30 10:24:43;;;;;;;2.87;2.67;;;;;;;;;;5036278;28;20180;-82
2021/05/30 10:27:11;;;;;;;3.67;3.47;;;;;;;;;;5036078;28;20169;-82
2021/05/30 10:29:36;;;;;;;3.40;3.10;;;;;;;;;;5055986;28;20172;-82
2021/05/30 10:32:27;;;;;;;3.00;2.80;;;;;;;;;;5054489;28;20172;-82
2021/05/30 10:35:12;;;;;;;3.23;3.03;;;;;;;;;;5053662;28;20537;-82
2021/05/30 10:37:41;;;;;;;3.50;2.80;;;;;;;;;;5055391;28;20207;-82
2021/05/30 10:40:26;;;;;;;3.37;3.00;;;;;;;;;;5056369;28;20267;-82
2021/05/30 10:43:07;;;;;;;3.90;3.47;;;;;;;;;;5055540;28;20175;-82
2021/05/30 10:45:33;;;;;;;3.33;3.03;;;;;;;;;;5056366;28;20262;-81
2021/05/30 10:48:05;;;;;;;3.13;2.90;;;;;;;;;;5056305;28;20242;-82
2021/05/30 10:50:36;;;;;;;3.70;2.83;;;;;;;;;;5053543;28;20180;-82
2021/05/30 10:53:01;;;;;;;3.00;2.80;;;;;;;;;;5055388;28;20182;-82
2021/05/30 10:55:28;;;;;;;2.47;2.37;;;;;;;;;;5056057;28;20171;-82
2021/05/30 10:57:53;;;;;;;3.22;3.03;;;;;;;;;;5055796;28;20618;-82
2021/05/30 11:00:19;;;;;;;3.00;2.75;;;;;;;;;;5055732;28;20168;-83
2021/05/30 11:03:06;;;;;;;2.78;2.58;;;;;;;;;;5055842;28;20175;-83
2021/05/30 11:05:38;;;;;;;3.60;2.70;;;;;;;;;;5055133;28;20190;-84
2021/05/30 11:08:03;;;;;;;2.72;2.53;;;;;;;;;;5055453;28;20199;-84
2021/05/30 11:10:29;;;;;;;2.65;2.55;;;;;;;;;;5055415;28;20318;-85
2021/05/30 11:12:55;;;;;;;3.30;2.95;;;;;;;;;;5054256;28;20180;-85
2021/05/30 11:15:21;;;;;;;2.50;2.40;;;;;;;;;;5054371;28;20175;-84
2021/05/30 11:17:49;;;;;;;3.17;2.95;;;;;;;;;;5055460;28;20631;-84
2021/05/30 11:20:19;;;;;;;3.17;2.95;;;;;;;;;;5054442;28;20701;-86
2021/05/30 11:22:47;;;;;;;3.20;3.00;;;;;;;;;;5055687;28;20184;-86
2021/05/30 11:25:14;;;;;;;3.33;3.13;;;;;;;;;;5055367;28;20168;-85
2021/05/30 11:27:53;;;;;;;3.70;3.40;;;;;;;;;;5055098;28;20663;-85
2021/05/30 11:30:37;;;;;;;3.00;2.90;;;;;;;;;;5055167;28;20602;-84
2021/05/30 11:33:02;;;;;;;3.58;3.28;;;;;;;;;;5055338;28;20177;-84
2021/05/30 11:35:29;;;;;;;4.20;3.53;;;;;;;;;;5054973;28;20188;-84
2021/05/30 11:37:55;;;;;;;3.28;3.08;;;;;;;;;;5055111;28;20203;-84
2021/05/30 11:40:22;;;;;;;3.30;3.10;;;;;;;;;;5055064;28;20203;-84
2021/05/30 11:42:47;;;;;;;3.30;3.00;;;;;;;;;;5054627;28;20243;-85
2021/05/30 11:45:31;;;;;;;3.25;3.00;;;;;;;;;;5054621;28;20207;-85
2021/05/30 11:48:11;;;;;;;3.47;3.17;;;;;;;;;;5054817;28;20330;-85
2021/05/30 11:50:38;;;;;;;3.42;3.15;;;;;;;;;;5053907;28;20168;-84
2021/05/30 11:53:07;;;;;;;3.90;3.30;;;;;;;;;;5054558;28;20180;-84
2021/05/30 11:55:33;;;;;;;3.70;3.30;;;;;;;;;;5053371;28;20172;-83
2021/05/30 11:58:08;;;;;;;3.65;3.30;;;;;;;;;;5052521;28;20221;-83
2021/05/30 12:00:33;;;;;;;3.50;3.20;;;;;;;;;;5052919;28;20160;-83
2021/05/30 12:03:06;;;;;;;3.90;3.50;;;;;;;;;;5053036;28;20190;-83
2021/05/30 12:05:31;;;;;;;4.20;3.53;;;;;;;;;;5052882;28;20184;-84
2021/05/30 12:07:57;;;;;;;3.40;3.20;;;;;;;;;;5052252;28;20242;-83
2021/05/30 12:10:22;;;;;;;3.40;3.20;;;;;;;;;;5052681;28;20172;-83
2021/05/30 12:12:48;;;;;;;4.10;3.58;;;;;;;;;;5052763;28;20171;-83
2021/05/30 12:15:20;;;;;;;3.95;3.20;;;;;;;;;;5052622;28;20172;-84
2021/05/30 12:18:07;;;;;;;3.70;3.40;;;;;;;;;;5052852;28;20176;-84
2021/05/30 12:20:35;;;;;;;4.38;3.97;;;;;;;;;;5053364;28;20163;-84
2021/05/30 12:23:14;;;;;;;3.80;3.50;;;;;;;;;;5053504;28;20627;-84
2021/05/30 12:25:51;;;;;;;3.40;3.20;;;;;;;;;;5053855;28;20198;-84
2021/05/30 12:28:17;;;;;;;3.17;2.97;;;;;;;;;;5052152;28;20307;-83
2021/05/30 12:30:46;;;;;;;3.40;3.20;;;;;;;;;;5049771;28;20203;-83
2021/05/30 12:33:11;;;;;;;7.28;4.50;;;;;;;;;;5034556;28;20176;-83
2021/05/30 12:35:55;;;;;;;4.13;3.83;;;;;;;;;;5034271;28;20192;-83
2021/05/30 12:38:28;;;;;;;3.47;3.17;;;;;;;;;;5034006;28;20161;-83
2021/05/30 12:40:54;;;;;;;5.00;4.60;;;;;;;;;;5033712;28;20181;-83
2021/05/30 12:43:33;;;;;;;4.95;3.08;;;;;;;;;;5034116;28;20220;-83
2021/05/30 12:46:03;;;;;;;3.10;2.88;;;;;;;;;;5034095;28;20216;-83
2021/05/30 12:48:45;;;;;;;2.75;2.55;;;;;;;;;;5034178;28;20188;-83
2021/05/30 12:51:11;;;;;;;2.58;2.40;;;;;;;;;;5037829;28;20648;-83
2021/05/30 12:53:38;;;;;;;2.50;2.40;;;;;;;;;;5042290;28;20183;-83
2021/05/30 12:56:13;;;;;;;3.17;2.78;;;;;;;;;;5033402;28;20184;-83
2021/05/30 12:58:39;;;;;;;2.35;2.25;;;;;;;;;;5033652;28;20164;-84
2021/05/30 13:01:18;;;;;;;2.40;2.20;;;;;;;;;;5046539;28;20706;-83
2021/05/30 13:03:43;;;;;;;2.50;2.30;;;;;;;;;;5053365;28;20238;-83
2021/05/30 13:06:09;;;;;;;2.50;2.30;;;;;;;;;;5053620;28;20199;-83
2021/05/30 13:08:34;;;;;;;2.47;2.27;;;;;;;;;;5053409;28;20211;-82
2021/05/30 13:11:00;;;;;;;2.60;2.40;;;;;;;;;;5053856;28;20172;-83
2021/05/30 13:13:27;;;;;;;2.92;2.40;;;;;;;;;;5053305;28;20175;-83
2021/05/30 13:15:52;;;;;;;3.30;3.00;;;;;;;;;;5053664;28;20756;-83
2021/05/30 13:18:18;;;;;;;3.10;2.90;;;;;;;;;;5055254;28;20175;-83
2021/05/30 13:20:46;;;;;;;5.05;3.17;;;;;;;;;;5053313;28;20668;-84
2021/05/30 13:23:16;;;;;;;2.90;2.80;;;;;;;;;;5052996;28;20250;-83
2021/05/30 13:25:43;;;;;;;3.27;3.00;;;;;;;;;;5052725;28;20187;-84
2021/05/30 13:28:23;;;;;;;2.93;2.80;;;;;;;;;;5053497;28;20195;-83
2021/05/30 13:30:50;;;;;;;3.07;2.87;;;;;;;;;;5053091;28;20688;-83
2021/05/30 13:33:16;;;;;;;3.27;3.03;;;;;;;;;;5053572;28;20174;-83
2021/05/30 13:35:41;;;;;;;5.68;3.15;;;;;;;;;;5052996;28;20191;-84
2021/05/30 13:38:07;;;;;;;3.47;3.13;;;;;;;;;;5053463;28;20175;-84
2021/05/30 13:40:42;;;;;;;3.70;3.40;;;;;;;;;;5051884;28;20172;-83
2021/05/30 13:43:07;;;;;;;3.53;3.22;;;;;;;;;;5053149;28;20170;-83
2021/05/30 13:45:33;;;;;;;3.30;2.90;;;;;;;;;;5053266;28;20172;-83
2021/05/30 13:47:58;;;;;;;3.35;3.05;;;;;;;;;;5053434;28;20276;-84
2021/05/30 13:50:24;;;;;;;3.50;2.80;;;;;;;;;;5051599;28;20180;-83
2021/05/30 13:52:49;;;;;;;3.28;3.00;;;;;;;;;;5046394;28;20184;-83
2021/05/30 13:55:14;;;;;;;3.20;3.00;;;;;;;;;;5053472;28;20236;-83
2021/05/30 13:57:40;;;;;;;3.20;3.00;;;;;;;;;;5053010;28;20179;-82
2021/05/30 14:00:05;;;;;;;3.10;2.90;;;;;;;;;;5053689;28;20262;-82
2021/05/30 14:02:31;;;;;;;3.75;3.17;;;;;;;;;;5053265;28;20172;-82
2021/05/30 14:04:56;;;;;;;3.37;3.07;;;;;;;;;;5053491;28;20176;-82
2021/05/30 14:07:22;;;;;;;3.20;3.00;;;;;;;;;;5054741;28;20226;-82
2021/05/30 14:09:47;;;;;;;9.20;4.00;;;;;;;;;;5056985;28;20233;-82
2021/05/30 14:12:13;;;;;;;13.37;4.80;;;;;;;;;;5055494;28;20172;-82
2021/05/30 14:14:38;;;;;;;7.90;4.70;;;;;;;;;;5056735;28;20172;-82
2021/05/30 14:17:04;;;;;;;7.37;4.90;;;;;;;;;;5056516;28;20222;-82
2021/05/30 14:19:29;;;;;;;5.03;4.53;;;;;;;;;;5056871;28;20234;-81
2021/05/30 14:21:54;;;;;;;4.70;3.70;;;;;;;;;;5056572;28;20183;-82
2021/05/30 14:24:20;;;;;;;6.00;3.60;;;;;;;;;;5044097;28;20175;-82
2021/05/30 14:26:45;;;;;;;3.57;3.30;;;;;;;;;;5046767;28;20708;-82
2021/05/30 14:29:10;;;;;;;4.10;3.70;;;;;;;;;;5045672;28;20203;-82
2021/05/30 14:31:35;;;;;;;4.67;4.20;;;;;;;;;;5046153;28;20673;-82
2021/05/30 14:34:02;;;;;;;6.07;4.33;;;;;;;;;;5044392;28;20183;-82
2021/05/30 14:36:27;;;;;;;5.73;3.73;;;;;;;;;;5046079;28;20538;-82
2021/05/30 14:38:52;;;;;;;4.40;3.90;;;;;;;;;;5044988;28;20168;-82
2021/05/30 14:41:18;;;;;;;4.67;3.83;;;;;;;;;;5044216;28;20165;-82